Well Details
Well Information

03721453

Fernando Fee

35D

Los Angeles [037]

2

Southern California Gas Company [S4700]

Aliso Canyon [010]

Any Area [00]

34

03N

16W

SB

Active

GS, OG

4/16/1974

gps

83

34.307986

-118.544152

map

Well Records

File Name Type Size Modified on
 
 03721453_FF 35D_Noise_01-28-2017.csv csv 19.00 KB 2/7/2017
 03721453_FF 35D_Temp_01-28-2017.pdf PDF 207.00 KB 2/7/2017
 03721453_FF 35D_Noise_01-28-2017.pdf PDF 2.00 MB 2/7/2017
 03721453_FF 35D_Noise_01-28-2017.las Text 1.00 MB 2/7/2017
 03721453_FF 35D_PTEST_01-31-2017.xls Excel 74.00 KB 2/2/2017
 03721453.pdf PDF 257.00 KB 8/8/2016
 03721453_FF 35D_PTEST_07-19-2016.xlsx Excel 25.00 KB 8/3/2016
 03721453_Temp_03-22-2016.PDF PDF 698.00 KB 3/25/2016
 03721453_Noise_03-22-2016.pdf PDF 2.00 MB 3/25/2016
 03721453_Noise_03-22-2016.las Text 1.00 MB 3/25/2016
 03721453_Survey_Temperature_09-16-2015(FF35D).pdf PDF 582.00 KB 9/23/2015
 03721453_Survey_Temperature_09-26-2014(FF35D).pdf PDF 194.00 KB 10/7/2014
 03721453_Survey_Temperature_10-22-2013(FF35D).pdf PDF 427.00 KB 10/31/2013
 03721453_Survey_Temperature_10-01-2012(FF35D).pdf PDF 82.00 KB 10/10/2012
 03721453_Survey_Temperature_08-31-2011.pdf PDF 92.00 KB 3/15/2012
 03721453_Computer Analyzed Log System_5-6-1974.tif TIF 186.00 KB 1/6/2012
 03721453_Survey_Temperature_08-31-2011(FF35D).pdf PDF 92.00 KB 9/8/2011
 03721453_TEMPERATURE_08-13-2009.pdf PDF 155.00 KB 10/26/2009
 03721453_Temperature_8-15-2006.tif TIF 64.00 KB 6/24/2009
 03721453_Temperature_9-17-2004.tif TIF 61.00 KB 6/24/2009
 03721453_Pressure Survey_8-15-2006.tif TIF 73.00 KB 6/24/2009
 03721453_Pressure Survey_10-11-2005.tif TIF 70.00 KB 6/20/2009
 03721453_Temperature_10-11-2005.tif TIF 59.00 KB 6/20/2009
 03721453_DATA_03-19-2008.pdf PDF 1.00 MB 1/28/2009
 03721453_PRESSURE_TEMPERATURE_09-15-2008.pdf PDF 44.00 KB 9/19/2008
 03721453_Temperature_7-17-1997.tif TIF 182.00 KB 8/24/2008
 03721453_Temperature_8-4-1998.tif TIF 130.00 KB 8/24/2008
 03721453_Temperature_9-25-2001.tif TIF 59.00 KB 8/24/2008
 03721453_Compensated Acoustic Velocity Log_5-14-1974.tif TIF 278.00 KB 8/12/2007
 03721453_Compensated Density Log_5-14-1974.tif TIF 249.00 KB 8/12/2007
 03721453_Caliper Log_5-14-1974.tif TIF 690.00 KB 8/11/2007
 03721453_Micro-Seismogram Log-Cased Hole_6-4-1974.tif TIF 2.00 MB 8/11/2007
 03721453_Sidewall Neutron Log_5-14-1974.tif TIF 201.00 KB 8/11/2007
 03721453_Noise and Temperature Survey_11-15-1991.pdf PDF 126.00 KB 5/16/2007
 03721453_Induction-Electrical Log_5-6-1974.tif TIF 1.00 MB 5/16/2007
 03721453_Noise and Temperature Survey_11-15-1991.tif TIF 143.00 KB 5/16/2007


Production Data


Date Oil(bbl) Water(bbl) Gas(Mcf) Days Producing Gravity Csg Tbg BTU MO Disp PWT Status Well Type Status Pool Code Sum Row
Date Oil(bbl) Water(bbl) Gas(Mcf) Days Producing Gravity Csg Tbg BTU MO Disp PWT Status Well Type Status Pool Code Sum Row


Injection Data


Date Water/Steam(bbl) Gas/Air(Mcf) Days Injecting Pressure Water Source Water Kind PWT Status Well Type Status Pool Code Sum Row
Date Water/Steam(bbl) Gas/Air(Mcf) Days Injecting Pressure Water Source Water Kind PWT Status Well Type Status Pool Code Sum Row



Production Charts



Injection Charts